CSP5 weather

Public forecast

Using degrees Celsius for public forecast. Weather courtesy of forecast.io.

Closest aviation weather report (METAR) to St-Mathias Airport

Closest report is Montréal / Saint-Hubert Airport, 7.4 nm (13.8 km) W. Retrieved 2020/08/14 11:00 UTC (14 minutes ago):

CYHU 141100Z AUTO 01007KT 9SM CLR 17/14 A3014 RMK SLP209

Closest aviation forecast (TAF) to St-Mathias Airport

Closest forecast is Montréal / Saint-Hubert Airport, 7.4 nm (13.8 km) W. Retrieved 2020/08/14 06:42 UTC (5 hours ago):

TAF TAF CYHU 140538Z 1406/1506 03005KT P6SM SCT070 FM141000 03010KT P6SM SCT050 FM141500 04012KT P6SM FEW050 BECMG 1500/1502 04008KT RMK FCST BASED ON AUTO OBS NXT FCST BY 141200Z